sensor_id;sensor_type;location;lat;lon;timestamp;P1;durP1;ratioP1;P2;durP2;ratioP2
53261;SDS011;39658;51.090;-1.786;2024-01-30T00:01:04;6.35;;;1.00;;
53261;SDS011;39658;51.090;-1.786;2024-01-30T00:03:31;2.97;;;0.50;;
53261;SDS011;39658;51.090;-1.786;2024-01-30T00:05:58;4.05;;;1.05;;
53261;SDS011;39658;51.090;-1.786;2024-01-30T00:08:25;5.28;;;0.70;;
53261;SDS011;39658;51.090;-1.786;2024-01-30T00:10:52;6.65;;;1.05;;
53261;SDS011;39658;51.090;-1.786;2024-01-30T00:13:18;2.83;;;0.90;;
53261;SDS011;39658;51.090;-1.786;2024-01-30T00:15:45;3.60;;;0.73;;
53261;SDS011;39658;51.090;-1.786;2024-01-30T00:18:13;3.10;;;1.05;;
53261;SDS011;39658;51.090;-1.786;2024-01-30T00:20:40;7.10;;;1.23;;
53261;SDS011;39658;51.090;-1.786;2024-01-30T00:23:07;6.03;;;1.10;;
53261;SDS011;39658;51.090;-1.786;2024-01-30T00:25:34;3.97;;;0.63;;
53261;SDS011;39658;51.090;-1.786;2024-01-30T00:28:01;6.50;;;0.93;;
53261;SDS011;39658;51.090;-1.786;2024-01-30T00:30:28;7.47;;;1.10;;
53261;SDS011;39658;51.090;-1.786;2024-01-30T00:32:55;9.35;;;1.55;;
53261;SDS011;39658;51.090;-1.786;2024-01-30T00:35:23;8.40;;;1.10;;
53261;SDS011;39658;51.090;-1.786;2024-01-30T00:37:49;5.03;;;0.75;;
53261;SDS011;39658;51.090;-1.786;2024-01-30T00:40:16;7.55;;;1.30;;
53261;SDS011;39658;51.090;-1.786;2024-01-30T00:42:43;6.40;;;1.02;;
53261;SDS011;39658;51.090;-1.786;2024-01-30T00:45:13;11.95;;;2.15;;
53261;SDS011;39658;51.090;-1.786;2024-01-30T00:47:41;8.52;;;0.85;;
53261;SDS011;39658;51.090;-1.786;2024-01-30T00:50:08;9.15;;;1.42;;
53261;SDS011;39658;51.090;-1.786;2024-01-30T00:52:37;5.38;;;1.30;;
53261;SDS011;39658;51.090;-1.786;2024-01-30T00:55:06;6.20;;;0.85;;
53261;SDS011;39658;51.090;-1.786;2024-01-30T00:57:33;5.63;;;1.40;;
53261;SDS011;39658;51.090;-1.786;2024-01-30T01:00:00;2.47;;;1.10;;
53261;SDS011;39658;51.090;-1.786;2024-01-30T01:02:26;5.10;;;0.90;;
53261;SDS011;39658;51.090;-1.786;2024-01-30T01:04:53;4.25;;;0.80;;
53261;SDS011;39658;51.090;-1.786;2024-01-30T01:07:20;5.38;;;1.33;;
53261;SDS011;39658;51.090;-1.786;2024-01-30T01:09:48;4.35;;;0.80;;
53261;SDS011;39658;51.090;-1.786;2024-01-30T01:12:15;7.03;;;1.10;;
53261;SDS011;39658;51.090;-1.786;2024-01-30T01:14:42;5.30;;;1.30;;
53261;SDS011;39658;51.090;-1.786;2024-01-30T01:17:08;4.07;;;1.35;;
53261;SDS011;39658;51.090;-1.786;2024-01-30T01:19:35;5.97;;;0.90;;
53261;SDS011;39658;51.090;-1.786;2024-01-30T01:22:02;5.05;;;1.40;;
53261;SDS011;39658;51.090;-1.786;2024-01-30T01:24:30;7.15;;;0.80;;
53261;SDS011;39658;51.090;-1.786;2024-01-30T01:26:59;5.20;;;0.88;;
53261;SDS011;39658;51.090;-1.786;2024-01-30T01:29:25;6.20;;;1.83;;
53261;SDS011;39658;51.090;-1.786;2024-01-30T01:31:54;12.73;;;1.70;;
53261;SDS011;39658;51.090;-1.786;2024-01-30T01:34:21;7.72;;;1.52;;
53261;SDS011;39658;51.090;-1.786;2024-01-30T01:36:48;9.52;;;1.25;;
53261;SDS011;39658;51.090;-1.786;2024-01-30T01:39:15;5.70;;;1.52;;
53261;SDS011;39658;51.090;-1.786;2024-01-30T01:41:43;4.95;;;1.15;;
53261;SDS011;39658;51.090;-1.786;2024-01-30T01:44:11;6.25;;;1.40;;
53261;SDS011;39658;51.090;-1.786;2024-01-30T01:46:37;4.03;;;0.82;;
53261;SDS011;39658;51.090;-1.786;2024-01-30T01:49:05;7.47;;;1.17;;
53261;SDS011;39658;51.090;-1.786;2024-01-30T01:51:33;7.78;;;1.80;;
53261;SDS011;39658;51.090;-1.786;2024-01-30T01:54:03;8.07;;;1.48;;
53261;SDS011;39658;51.090;-1.786;2024-01-30T01:56:31;8.88;;;1.20;;
53261;SDS011;39658;51.090;-1.786;2024-01-30T01:59:00;8.00;;;1.40;;
53261;SDS011;39658;51.090;-1.786;2024-01-30T02:01:33;12.75;;;1.65;;
53261;SDS011;39658;51.090;-1.786;2024-01-30T02:04:00;9.30;;;2.08;;
53261;SDS011;39658;51.090;-1.786;2024-01-30T02:06:27;6.28;;;2.15;;
53261;SDS011;39658;51.090;-1.786;2024-01-30T02:08:54;4.47;;;1.50;;
53261;SDS011;39658;51.090;-1.786;2024-01-30T02:11:21;5.72;;;1.95;;
53261;SDS011;39658;51.090;-1.786;2024-01-30T02:13:49;7.38;;;1.73;;
53261;SDS011;39658;51.090;-1.786;2024-01-30T02:16:16;9.13;;;1.23;;
53261;SDS011;39658;51.090;-1.786;2024-01-30T02:18:44;4.20;;;1.23;;
53261;SDS011;39658;51.090;-1.786;2024-01-30T02:21:14;4.93;;;1.40;;
53261;SDS011;39658;51.090;-1.786;2024-01-30T02:23:42;5.65;;;1.20;;
53261;SDS011;39658;51.090;-1.786;2024-01-30T02:26:10;2.65;;;1.05;;
53261;SDS011;39658;51.090;-1.786;2024-01-30T02:28:37;2.35;;;0.93;;
53261;SDS011;39658;51.090;-1.786;2024-01-30T02:31:04;2.67;;;1.05;;
53261;SDS011;39658;51.090;-1.786;2024-01-30T02:33:31;3.38;;;0.82;;
53261;SDS011;39658;51.090;-1.786;2024-01-30T02:35:58;2.85;;;0.90;;
53261;SDS011;39658;51.090;-1.786;2024-01-30T02:38:26;3.00;;;1.10;;
53261;SDS011;39658;51.090;-1.786;2024-01-30T02:40:53;2.30;;;0.90;;
53261;SDS011;39658;51.090;-1.786;2024-01-30T02:43:20;2.42;;;0.80;;
53261;SDS011;39658;51.090;-1.786;2024-01-30T02:45:47;0.90;;;0.57;;
53261;SDS011;39658;51.090;-1.786;2024-01-30T02:48:14;1.40;;;0.60;;
53261;SDS011;39658;51.090;-1.786;2024-01-30T02:50:40;0.80;;;0.30;;
53261;SDS011;39658;51.090;-1.786;2024-01-30T02:53:07;1.58;;;0.57;;
53261;SDS011;39658;51.090;-1.786;2024-01-30T02:55:35;1.13;;;0.60;;
53261;SDS011;39658;51.090;-1.786;2024-01-30T02:58:02;4.40;;;0.63;;
53261;SDS011;39658;51.090;-1.786;2024-01-30T03:00:29;1.98;;;0.70;;
53261;SDS011;39658;51.090;-1.786;2024-01-30T03:02:56;2.58;;;0.57;;
53261;SDS011;39658;51.090;-1.786;2024-01-30T03:05:22;3.58;;;0.82;;
53261;SDS011;39658;51.090;-1.786;2024-01-30T03:07:49;2.85;;;1.00;;
53261;SDS011;39658;51.090;-1.786;2024-01-30T03:10:16;4.10;;;0.80;;
53261;SDS011;39658;51.090;-1.786;2024-01-30T03:12:44;3.60;;;1.00;;
53261;SDS011;39658;51.090;-1.786;2024-01-30T03:15:11;4.05;;;1.33;;
53261;SDS011;39658;51.090;-1.786;2024-01-30T03:17:38;3.63;;;0.77;;
53261;SDS011;39658;51.090;-1.786;2024-01-30T03:20:05;3.97;;;1.10;;
53261;SDS011;39658;51.090;-1.786;2024-01-30T03:22:32;9.52;;;1.75;;
53261;SDS011;39658;51.090;-1.786;2024-01-30T03:24:59;2.42;;;0.88;;
53261;SDS011;39658;51.090;-1.786;2024-01-30T03:27:26;3.95;;;0.57;;
53261;SDS011;39658;51.090;-1.786;2024-01-30T03:29:54;3.70;;;1.15;;
53261;SDS011;39658;51.090;-1.786;2024-01-30T03:32:20;6.72;;;1.40;;
53261;SDS011;39658;51.090;-1.786;2024-01-30T03:34:47;12.45;;;1.40;;
53261;SDS011;39658;51.090;-1.786;2024-01-30T03:37:14;9.32;;;1.50;;
53261;SDS011;39658;51.090;-1.786;2024-01-30T03:39:41;5.18;;;1.00;;
53261;SDS011;39658;51.090;-1.786;2024-01-30T03:42:07;3.13;;;0.80;;
53261;SDS011;39658;51.090;-1.786;2024-01-30T03:44:34;2.28;;;0.88;;
53261;SDS011;39658;51.090;-1.786;2024-01-30T03:47:02;5.32;;;0.95;;
53261;SDS011;39658;51.090;-1.786;2024-01-30T03:49:29;4.10;;;0.90;;
53261;SDS011;39658;51.090;-1.786;2024-01-30T03:51:56;4.72;;;1.23;;
53261;SDS011;39658;51.090;-1.786;2024-01-30T03:54:23;2.72;;;0.82;;
53261;SDS011;39658;51.090;-1.786;2024-01-30T03:56:49;6.25;;;1.25;;
53261;SDS011;39658;51.090;-1.786;2024-01-30T03:59:16;3.78;;;1.45;;
53261;SDS011;39658;51.090;-1.786;2024-01-30T04:01:47;6.38;;;1.38;;
53261;SDS011;39658;51.090;-1.786;2024-01-30T04:04:15;4.68;;;0.85;;
53261;SDS011;39658;51.090;-1.786;2024-01-30T04:06:42;3.72;;;0.80;;
53261;SDS011;39658;51.090;-1.786;2024-01-30T04:09:08;4.50;;;1.02;;
53261;SDS011;39658;51.090;-1.786;2024-01-30T04:11:36;6.82;;;1.13;;
53261;SDS011;39658;51.090;-1.786;2024-01-30T04:14:03;7.82;;;1.30;;
53261;SDS011;39658;51.090;-1.786;2024-01-30T04:16:30;3.05;;;0.75;;
53261;SDS011;39658;51.090;-1.786;2024-01-30T04:18:57;6.20;;;1.40;;
53261;SDS011;39658;51.090;-1.786;2024-01-30T04:21:25;4.30;;;1.35;;
53261;SDS011;39658;51.090;-1.786;2024-01-30T04:23:52;6.13;;;0.85;;
53261;SDS011;39658;51.090;-1.786;2024-01-30T04:26:19;4.50;;;0.85;;
53261;SDS011;39658;51.090;-1.786;2024-01-30T04:28:46;4.10;;;1.33;;
53261;SDS011;39658;51.090;-1.786;2024-01-30T04:31:13;3.60;;;1.05;;
53261;SDS011;39658;51.090;-1.786;2024-01-30T04:33:40;7.85;;;1.20;;
53261;SDS011;39658;51.090;-1.786;2024-01-30T04:36:08;3.90;;;0.68;;
53261;SDS011;39658;51.090;-1.786;2024-01-30T04:38:36;6.82;;;0.90;;
53261;SDS011;39658;51.090;-1.786;2024-01-30T04:41:03;9.40;;;1.10;;
53261;SDS011;39658;51.090;-1.786;2024-01-30T04:43:30;6.60;;;1.10;;
53261;SDS011;39658;51.090;-1.786;2024-01-30T04:45:57;2.85;;;0.95;;
53261;SDS011;39658;51.090;-1.786;2024-01-30T04:48:23;2.90;;;0.85;;
53261;SDS011;39658;51.090;-1.786;2024-01-30T04:50:50;2.92;;;0.70;;
53261;SDS011;39658;51.090;-1.786;2024-01-30T04:53:17;3.83;;;0.70;;
53261;SDS011;39658;51.090;-1.786;2024-01-30T04:55:45;1.95;;;0.70;;
53261;SDS011;39658;51.090;-1.786;2024-01-30T04:58:12;6.07;;;1.13;;
53261;SDS011;39658;51.090;-1.786;2024-01-30T05:00:39;4.72;;;1.58;;
53261;SDS011;39658;51.090;-1.786;2024-01-30T05:03:05;7.13;;;1.90;;
53261;SDS011;39658;51.090;-1.786;2024-01-30T05:05:32;6.47;;;1.98;;
53261;SDS011;39658;51.090;-1.786;2024-01-30T05:07:59;6.80;;;2.25;;
53261;SDS011;39658;51.090;-1.786;2024-01-30T05:10:26;7.28;;;2.45;;
53261;SDS011;39658;51.090;-1.786;2024-01-30T05:12:55;8.20;;;3.78;;
53261;SDS011;39658;51.090;-1.786;2024-01-30T05:15:21;11.40;;;3.47;;
53261;SDS011;39658;51.090;-1.786;2024-01-30T05:17:48;9.38;;;3.53;;
53261;SDS011;39658;51.090;-1.786;2024-01-30T05:20:16;5.35;;;2.65;;
53261;SDS011;39658;51.090;-1.786;2024-01-30T05:22:42;6.72;;;2.33;;
53261;SDS011;39658;51.090;-1.786;2024-01-30T05:25:10;12.93;;;3.38;;
53261;SDS011;39658;51.090;-1.786;2024-01-30T05:27:37;14.88;;;4.18;;
53261;SDS011;39658;51.090;-1.786;2024-01-30T05:30:06;11.88;;;3.60;;
53261;SDS011;39658;51.090;-1.786;2024-01-30T05:32:33;7.82;;;3.05;;
53261;SDS011;39658;51.090;-1.786;2024-01-30T05:35:00;5.43;;;2.15;;
53261;SDS011;39658;51.090;-1.786;2024-01-30T05:37:27;8.10;;;3.47;;
53261;SDS011;39658;51.090;-1.786;2024-01-30T05:39:54;8.73;;;2.90;;
53261;SDS011;39658;51.090;-1.786;2024-01-30T05:42:21;9.35;;;2.45;;
53261;SDS011;39658;51.090;-1.786;2024-01-30T05:44:47;6.82;;;2.42;;
53261;SDS011;39658;51.090;-1.786;2024-01-30T05:47:15;6.65;;;2.47;;
53261;SDS011;39658;51.090;-1.786;2024-01-30T05:49:42;8.85;;;2.85;;
53261;SDS011;39658;51.090;-1.786;2024-01-30T05:52:09;7.18;;;2.75;;
53261;SDS011;39658;51.090;-1.786;2024-01-30T05:54:36;7.80;;;1.92;;
53261;SDS011;39658;51.090;-1.786;2024-01-30T05:57:03;10.20;;;2.60;;
53261;SDS011;39658;51.090;-1.786;2024-01-30T05:59:29;8.50;;;1.95;;
53261;SDS011;39658;51.090;-1.786;2024-01-30T06:01:56;6.40;;;2.22;;
53261;SDS011;39658;51.090;-1.786;2024-01-30T06:04:24;8.05;;;3.78;;
53261;SDS011;39658;51.090;-1.786;2024-01-30T06:06:51;6.50;;;2.67;;
53261;SDS011;39658;51.090;-1.786;2024-01-30T06:09:18;6.60;;;2.90;;
53261;SDS011;39658;51.090;-1.786;2024-01-30T06:11:44;11.65;;;2.30;;
53261;SDS011;39658;51.090;-1.786;2024-01-30T06:14:11;9.32;;;2.65;;
53261;SDS011;39658;51.090;-1.786;2024-01-30T06:16:38;7.15;;;2.40;;
53261;SDS011;39658;51.090;-1.786;2024-01-30T06:19:05;10.98;;;3.15;;
53261;SDS011;39658;51.090;-1.786;2024-01-30T06:21:33;8.20;;;2.63;;
53261;SDS011;39658;51.090;-1.786;2024-01-30T06:24:01;7.47;;;2.03;;
53261;SDS011;39658;51.090;-1.786;2024-01-30T06:26:28;12.57;;;2.70;;
53261;SDS011;39658;51.090;-1.786;2024-01-30T06:28:55;7.95;;;2.88;;
53261;SDS011;39658;51.090;-1.786;2024-01-30T06:31:22;11.98;;;2.72;;
53261;SDS011;39658;51.090;-1.786;2024-01-30T06:33:49;22.23;;;3.70;;
53261;SDS011;39658;51.090;-1.786;2024-01-30T06:36:15;13.27;;;3.97;;
53261;SDS011;39658;51.090;-1.786;2024-01-30T06:38:44;14.73;;;4.43;;
53261;SDS011;39658;51.090;-1.786;2024-01-30T06:41:11;12.90;;;3.70;;
53261;SDS011;39658;51.090;-1.786;2024-01-30T06:43:38;14.20;;;4.10;;
53261;SDS011;39658;51.090;-1.786;2024-01-30T06:46:05;10.65;;;3.75;;
53261;SDS011;39658;51.090;-1.786;2024-01-30T06:48:31;12.82;;;4.60;;
53261;SDS011;39658;51.090;-1.786;2024-01-30T06:50:58;18.58;;;4.88;;
53261;SDS011;39658;51.090;-1.786;2024-01-30T06:53:25;13.75;;;4.75;;
53261;SDS011;39658;51.090;-1.786;2024-01-30T06:55:53;16.17;;;4.68;;
53261;SDS011;39658;51.090;-1.786;2024-01-30T06:58:20;15.98;;;4.72;;
53261;SDS011;39658;51.090;-1.786;2024-01-30T07:00:46;15.02;;;4.80;;
53261;SDS011;39658;51.090;-1.786;2024-01-30T07:03:13;13.40;;;3.78;;
53261;SDS011;39658;51.090;-1.786;2024-01-30T07:05:40;17.67;;;4.07;;
53261;SDS011;39658;51.090;-1.786;2024-01-30T07:08:07;10.63;;;3.65;;
53261;SDS011;39658;51.090;-1.786;2024-01-30T07:10:34;9.77;;;3.15;;
53261;SDS011;39658;51.090;-1.786;2024-01-30T07:13:02;12.98;;;4.38;;
53261;SDS011;39658;51.090;-1.786;2024-01-30T07:15:30;11.23;;;3.47;;
53261;SDS011;39658;51.090;-1.786;2024-01-30T07:17:57;14.93;;;4.07;;
53261;SDS011;39658;51.090;-1.786;2024-01-30T07:20:24;14.88;;;3.08;;
53261;SDS011;39658;51.090;-1.786;2024-01-30T07:22:50;11.70;;;3.83;;
53261;SDS011;39658;51.090;-1.786;2024-01-30T07:25:17;8.48;;;2.95;;
53261;SDS011;39658;51.090;-1.786;2024-01-30T07:27:44;16.25;;;3.97;;
53261;SDS011;39658;51.090;-1.786;2024-01-30T07:30:12;12.02;;;3.45;;
53261;SDS011;39658;51.090;-1.786;2024-01-30T07:32:40;13.82;;;4.22;;
53261;SDS011;39658;51.090;-1.786;2024-01-30T07:35:07;9.63;;;3.63;;
53261;SDS011;39658;51.090;-1.786;2024-01-30T07:37:34;14.52;;;4.38;;
53261;SDS011;39658;51.090;-1.786;2024-01-30T07:40:02;25.17;;;5.03;;
53261;SDS011;39658;51.090;-1.786;2024-01-30T07:42:29;15.10;;;4.97;;
53261;SDS011;39658;51.090;-1.786;2024-01-30T07:44:56;13.25;;;4.43;;
53261;SDS011;39658;51.090;-1.786;2024-01-30T07:47:24;16.33;;;4.13;;
53261;SDS011;39658;51.090;-1.786;2024-01-30T07:49:51;13.13;;;5.03;;
53261;SDS011;39658;51.090;-1.786;2024-01-30T07:52:19;16.10;;;4.90;;
53261;SDS011;39658;51.090;-1.786;2024-01-30T07:54:46;13.15;;;4.55;;
53261;SDS011;39658;51.090;-1.786;2024-01-30T07:57:12;13.77;;;3.78;;
53261;SDS011;39658;51.090;-1.786;2024-01-30T07:59:39;17.98;;;5.50;;
53261;SDS011;39658;51.090;-1.786;2024-01-30T08:02:09;21.77;;;4.65;;
53261;SDS011;39658;51.090;-1.786;2024-01-30T08:04:37;23.10;;;5.63;;
53261;SDS011;39658;51.090;-1.786;2024-01-30T08:07:03;12.73;;;4.30;;
53261;SDS011;39658;51.090;-1.786;2024-01-30T08:09:30;21.90;;;4.72;;
53261;SDS011;39658;51.090;-1.786;2024-01-30T08:11:57;16.13;;;4.65;;
53261;SDS011;39658;51.090;-1.786;2024-01-30T08:14:24;13.63;;;6.15;;
53261;SDS011;39658;51.090;-1.786;2024-01-30T08:16:51;13.98;;;4.72;;
53261;SDS011;39658;51.090;-1.786;2024-01-30T08:19:18;18.77;;;4.95;;
53261;SDS011;39658;51.090;-1.786;2024-01-30T08:21:46;22.50;;;4.93;;
53261;SDS011;39658;51.090;-1.786;2024-01-30T08:24:13;18.88;;;4.93;;
53261;SDS011;39658;51.090;-1.786;2024-01-30T08:26:40;16.33;;;3.90;;
53261;SDS011;39658;51.090;-1.786;2024-01-30T08:29:07;10.13;;;4.30;;
53261;SDS011;39658;51.090;-1.786;2024-01-30T08:31:33;19.70;;;4.25;;
53261;SDS011;39658;51.090;-1.786;2024-01-30T08:34:00;17.95;;;4.97;;
53261;SDS011;39658;51.090;-1.786;2024-01-30T08:36:27;14.60;;;4.00;;
53261;SDS011;39658;51.090;-1.786;2024-01-30T08:38:55;15.65;;;4.22;;
53261;SDS011;39658;51.090;-1.786;2024-01-30T08:41:22;13.98;;;4.25;;
53261;SDS011;39658;51.090;-1.786;2024-01-30T08:43:48;10.77;;;3.47;;
53261;SDS011;39658;51.090;-1.786;2024-01-30T08:46:17;16.90;;;3.53;;
53261;SDS011;39658;51.090;-1.786;2024-01-30T08:48:44;20.35;;;4.55;;
53261;SDS011;39658;51.090;-1.786;2024-01-30T08:51:10;17.10;;;4.57;;
53261;SDS011;39658;51.090;-1.786;2024-01-30T08:53:37;16.48;;;4.28;;
53261;SDS011;39658;51.090;-1.786;2024-01-30T08:56:06;21.60;;;5.00;;
53261;SDS011;39658;51.090;-1.786;2024-01-30T08:58:33;12.95;;;4.53;;
53261;SDS011;39658;51.090;-1.786;2024-01-30T09:01:00;10.85;;;3.50;;
53261;SDS011;39658;51.090;-1.786;2024-01-30T09:03:28;15.07;;;4.55;;
53261;SDS011;39658;51.090;-1.786;2024-01-30T09:05:55;10.90;;;3.92;;
53261;SDS011;39658;51.090;-1.786;2024-01-30T09:08:22;12.73;;;3.55;;
53261;SDS011;39658;51.090;-1.786;2024-01-30T09:10:49;9.35;;;2.83;;
53261;SDS011;39658;51.090;-1.786;2024-01-30T09:13:17;20.40;;;4.50;;
53261;SDS011;39658;51.090;-1.786;2024-01-30T09:15:44;23.15;;;3.97;;
53261;SDS011;39658;51.090;-1.786;2024-01-30T09:18:11;17.60;;;3.42;;
53261;SDS011;39658;51.090;-1.786;2024-01-30T09:20:38;16.55;;;3.53;;
53261;SDS011;39658;51.090;-1.786;2024-01-30T09:23:04;13.80;;;3.28;;
53261;SDS011;39658;51.090;-1.786;2024-01-30T09:25:31;9.98;;;3.10;;
53261;SDS011;39658;51.090;-1.786;2024-01-30T09:27:59;12.38;;;3.10;;
53261;SDS011;39658;51.090;-1.786;2024-01-30T09:30:27;13.80;;;3.67;;
53261;SDS011;39658;51.090;-1.786;2024-01-30T09:32:54;12.75;;;3.42;;
53261;SDS011;39658;51.090;-1.786;2024-01-30T09:35:21;9.82;;;2.95;;
53261;SDS011;39658;51.090;-1.786;2024-01-30T09:37:47;13.63;;;3.70;;
53261;SDS011;39658;51.090;-1.786;2024-01-30T09:40:14;14.65;;;3.00;;
53261;SDS011;39658;51.090;-1.786;2024-01-30T09:55:42;9.68;;;2.75;;
53261;SDS011;39658;51.090;-1.786;2024-01-30T09:58:11;18.20;;;3.80;;
53261;SDS011;39658;51.090;-1.786;2024-01-30T10:00:38;9.52;;;3.28;;
53261;SDS011;39658;51.090;-1.786;2024-01-30T10:03:05;11.07;;;2.83;;
53261;SDS011;39658;51.090;-1.786;2024-01-30T10:05:31;8.48;;;3.20;;
53261;SDS011;39658;51.090;-1.786;2024-01-30T10:07:59;10.27;;;3.30;;
53261;SDS011;39658;51.090;-1.786;2024-01-30T10:10:27;12.05;;;3.83;;
53261;SDS011;39658;51.090;-1.786;2024-01-30T10:12:55;9.88;;;2.92;;
53261;SDS011;39658;51.090;-1.786;2024-01-30T10:15:22;17.15;;;4.50;;
53261;SDS011;39658;51.090;-1.786;2024-01-30T10:17:50;10.40;;;2.58;;
53261;SDS011;39658;51.090;-1.786;2024-01-30T10:20:17;11.23;;;3.40;;
53261;SDS011;39658;51.090;-1.786;2024-01-30T10:22:44;16.38;;;3.20;;
53261;SDS011;39658;51.090;-1.786;2024-01-30T10:25:11;13.55;;;3.38;;
53261;SDS011;39658;51.090;-1.786;2024-01-30T10:27:39;11.93;;;3.65;;
53261;SDS011;39658;51.090;-1.786;2024-01-30T10:30:08;5.03;;;2.53;;
53261;SDS011;39658;51.090;-1.786;2024-01-30T10:32:35;13.00;;;3.80;;
53261;SDS011;39658;51.090;-1.786;2024-01-30T10:35:02;11.10;;;3.72;;
53261;SDS011;39658;51.090;-1.786;2024-01-30T10:37:29;10.82;;;3.30;;
53261;SDS011;39658;51.090;-1.786;2024-01-30T10:39:58;6.95;;;3.42;;
53261;SDS011;39658;51.090;-1.786;2024-01-30T10:42:31;16.98;;;4.07;;
53261;SDS011;39658;51.090;-1.786;2024-01-30T10:44:59;11.45;;;3.08;;
53261;SDS011;39658;51.090;-1.786;2024-01-30T10:47:31;14.38;;;3.17;;
53261;SDS011;39658;51.090;-1.786;2024-01-30T10:50:00;13.15;;;3.67;;
53261;SDS011;39658;51.090;-1.786;2024-01-30T10:52:29;15.18;;;3.40;;
53261;SDS011;39658;51.090;-1.786;2024-01-30T10:54:57;11.95;;;3.63;;
53261;SDS011;39658;51.090;-1.786;2024-01-30T10:57:25;10.43;;;3.03;;
53261;SDS011;39658;51.090;-1.786;2024-01-30T10:59:56;14.45;;;3.65;;
53261;SDS011;39658;51.090;-1.786;2024-01-30T11:02:25;13.60;;;4.80;;
53261;SDS011;39658;51.090;-1.786;2024-01-30T11:04:56;9.63;;;3.80;;
53261;SDS011;39658;51.090;-1.786;2024-01-30T11:07:25;13.13;;;3.20;;
53261;SDS011;39658;51.090;-1.786;2024-01-30T11:09:53;9.73;;;3.30;;
53261;SDS011;39658;51.090;-1.786;2024-01-30T11:12:25;14.60;;;3.50;;
53261;SDS011;39658;51.090;-1.786;2024-01-30T11:15:03;14.60;;;4.15;;
53261;SDS011;39658;51.090;-1.786;2024-01-30T11:17:41;7.90;;;3.00;;
53261;SDS011;39658;51.090;-1.786;2024-01-30T11:20:11;11.05;;;2.92;;
53261;SDS011;39658;51.090;-1.786;2024-01-30T11:22:40;9.48;;;3.35;;
53261;SDS011;39658;51.090;-1.786;2024-01-30T11:25:11;17.05;;;5.32;;
53261;SDS011;39658;51.090;-1.786;2024-01-30T11:27:38;15.18;;;6.05;;
53261;SDS011;39658;51.090;-1.786;2024-01-30T11:30:05;14.15;;;4.20;;
53261;SDS011;39658;51.090;-1.786;2024-01-30T11:32:33;14.20;;;3.70;;
53261;SDS011;39658;51.090;-1.786;2024-01-30T11:35:00;10.13;;;3.90;;
53261;SDS011;39658;51.090;-1.786;2024-01-30T11:37:31;13.90;;;4.13;;
53261;SDS011;39658;51.090;-1.786;2024-01-30T11:40:03;15.93;;;4.03;;
53261;SDS011;39658;51.090;-1.786;2024-01-30T11:42:30;9.57;;;3.38;;
53261;SDS011;39658;51.090;-1.786;2024-01-30T11:44:59;12.77;;;2.80;;
53261;SDS011;39658;51.090;-1.786;2024-01-30T11:47:27;13.32;;;3.20;;
53261;SDS011;39658;51.090;-1.786;2024-01-30T11:49:54;12.02;;;2.78;;
53261;SDS011;39658;51.090;-1.786;2024-01-30T11:52:21;12.25;;;3.72;;
53261;SDS011;39658;51.090;-1.786;2024-01-30T11:54:50;11.40;;;3.40;;
53261;SDS011;39658;51.090;-1.786;2024-01-30T11:57:17;8.70;;;2.28;;
53261;SDS011;39658;51.090;-1.786;2024-01-30T11:59:43;8.27;;;2.50;;
53261;SDS011;39658;51.090;-1.786;2024-01-30T12:02:15;9.68;;;2.88;;
53261;SDS011;39658;51.090;-1.786;2024-01-30T12:04:42;5.72;;;2.10;;
53261;SDS011;39658;51.090;-1.786;2024-01-30T12:07:08;7.28;;;2.35;;
53261;SDS011;39658;51.090;-1.786;2024-01-30T12:09:35;8.68;;;1.92;;
53261;SDS011;39658;51.090;-1.786;2024-01-30T12:12:04;9.45;;;2.38;;
53261;SDS011;39658;51.090;-1.786;2024-01-30T12:14:37;9.05;;;2.13;;
53261;SDS011;39658;51.090;-1.786;2024-01-30T12:17:04;3.58;;;1.65;;
53261;SDS011;39658;51.090;-1.786;2024-01-30T12:19:32;9.18;;;1.40;;
53261;SDS011;39658;51.090;-1.786;2024-01-30T12:21:59;6.50;;;1.35;;
53261;SDS011;39658;51.090;-1.786;2024-01-30T12:24:26;7.22;;;1.23;;
53261;SDS011;39658;51.090;-1.786;2024-01-30T12:26:56;4.40;;;1.42;;
53261;SDS011;39658;51.090;-1.786;2024-01-30T12:29:24;5.43;;;1.10;;
53261;SDS011;39658;51.090;-1.786;2024-01-30T12:31:52;4.13;;;1.10;;
53261;SDS011;39658;51.090;-1.786;2024-01-30T12:34:20;6.63;;;1.40;;
53261;SDS011;39658;51.090;-1.786;2024-01-30T12:36:46;7.55;;;1.23;;
53261;SDS011;39658;51.090;-1.786;2024-01-30T12:39:14;3.53;;;0.90;;
53261;SDS011;39658;51.090;-1.786;2024-01-30T12:41:41;4.78;;;1.30;;
53261;SDS011;39658;51.090;-1.786;2024-01-30T12:44:08;8.60;;;1.40;;
53261;SDS011;39658;51.090;-1.786;2024-01-30T12:46:36;7.18;;;1.20;;
53261;SDS011;39658;51.090;-1.786;2024-01-30T12:49:03;7.10;;;1.77;;
53261;SDS011;39658;51.090;-1.786;2024-01-30T12:51:29;6.22;;;1.55;;
53261;SDS011;39658;51.090;-1.786;2024-01-30T12:53:56;4.80;;;1.48;;
53261;SDS011;39658;51.090;-1.786;2024-01-30T12:56:23;4.05;;;1.33;;
53261;SDS011;39658;51.090;-1.786;2024-01-30T12:58:50;5.20;;;1.42;;
53261;SDS011;39658;51.090;-1.786;2024-01-30T13:01:16;6.85;;;1.30;;
53261;SDS011;39658;51.090;-1.786;2024-01-30T13:03:45;4.78;;;1.77;;
53261;SDS011;39658;51.090;-1.786;2024-01-30T13:06:26;21.05;;;6.32;;
53261;SDS011;39658;51.090;-1.786;2024-01-30T13:08:55;40.45;;;12.52;;
53261;SDS011;39658;51.090;-1.786;2024-01-30T13:11:22;28.80;;;11.90;;
53261;SDS011;39658;51.090;-1.786;2024-01-30T13:13:50;33.65;;;10.68;;
53261;SDS011;39658;51.090;-1.786;2024-01-30T13:16:17;37.85;;;11.10;;
53261;SDS011;39658;51.090;-1.786;2024-01-30T13:18:45;39.83;;;12.30;;
53261;SDS011;39658;51.090;-1.786;2024-01-30T13:21:12;44.80;;;14.70;;
53261;SDS011;39658;51.090;-1.786;2024-01-30T13:23:39;28.80;;;7.80;;
53261;SDS011;39658;51.090;-1.786;2024-01-30T13:26:05;32.85;;;12.52;;
53261;SDS011;39658;51.090;-1.786;2024-01-30T13:28:32;13.88;;;4.85;;
53261;SDS011;39658;51.090;-1.786;2024-01-30T13:30:59;11.20;;;2.75;;
53261;SDS011;39658;51.090;-1.786;2024-01-30T13:33:26;8.98;;;2.78;;
53261;SDS011;39658;51.090;-1.786;2024-01-30T13:35:54;5.72;;;1.73;;
53261;SDS011;39658;51.090;-1.786;2024-01-30T13:38:21;5.68;;;1.38;;
53261;SDS011;39658;51.090;-1.786;2024-01-30T13:40:48;5.55;;;1.15;;
53261;SDS011;39658;51.090;-1.786;2024-01-30T13:43:14;7.90;;;1.35;;
53261;SDS011;39658;51.090;-1.786;2024-01-30T13:45:41;4.90;;;1.45;;
53261;SDS011;39658;51.090;-1.786;2024-01-30T13:48:08;4.18;;;1.30;;
53261;SDS011;39658;51.090;-1.786;2024-01-30T13:50:35;4.90;;;1.60;;
53261;SDS011;39658;51.090;-1.786;2024-01-30T13:53:03;8.38;;;1.88;;
53261;SDS011;39658;51.090;-1.786;2024-01-30T13:55:30;5.60;;;1.70;;
53261;SDS011;39658;51.090;-1.786;2024-01-30T13:57:57;4.03;;;1.10;;
53261;SDS011;39658;51.090;-1.786;2024-01-30T14:00:23;5.90;;;1.50;;
53261;SDS011;39658;51.090;-1.786;2024-01-30T14:02:51;6.75;;;1.60;;
53261;SDS011;39658;51.090;-1.786;2024-01-30T14:05:19;6.70;;;1.75;;
53261;SDS011;39658;51.090;-1.786;2024-01-30T14:07:46;7.70;;;1.58;;
53261;SDS011;39658;51.090;-1.786;2024-01-30T14:10:15;7.70;;;1.77;;
53261;SDS011;39658;51.090;-1.786;2024-01-30T14:12:41;9.60;;;2.30;;
53261;SDS011;39658;51.090;-1.786;2024-01-30T14:15:09;5.68;;;1.80;;
53261;SDS011;39658;51.090;-1.786;2024-01-30T14:17:37;5.35;;;1.90;;
53261;SDS011;39658;51.090;-1.786;2024-01-30T14:20:05;7.38;;;1.52;;
53261;SDS011;39658;51.090;-1.786;2024-01-30T14:22:33;4.65;;;1.80;;
53261;SDS011;39658;51.090;-1.786;2024-01-30T14:25:00;4.95;;;1.95;;
53261;SDS011;39658;51.090;-1.786;2024-01-30T14:27:30;3.45;;;1.52;;
53261;SDS011;39658;51.090;-1.786;2024-01-30T14:29:57;4.10;;;1.23;;
53261;SDS011;39658;51.090;-1.786;2024-01-30T14:32:24;2.90;;;0.77;;
53261;SDS011;39658;51.090;-1.786;2024-01-30T14:34:51;4.72;;;0.82;;
53261;SDS011;39658;51.090;-1.786;2024-01-30T14:37:18;1.98;;;0.50;;
53261;SDS011;39658;51.090;-1.786;2024-01-30T14:39:46;4.68;;;1.10;;
53261;SDS011;39658;51.090;-1.786;2024-01-30T14:42:13;2.47;;;0.50;;